sensor_id;sensor_type;location;lat;lon;timestamp;P1;durP1;ratioP1;P2;durP2;ratioP2
48987;SDS011;34799;51.440;-2.534;2022-07-23T00:00:41;9.52;;;2.33;;
48987;SDS011;34799;51.440;-2.534;2022-07-23T00:03:08;4.57;;;1.60;;
48987;SDS011;34799;51.440;-2.534;2022-07-23T00:05:36;5.13;;;1.95;;
48987;SDS011;34799;51.440;-2.534;2022-07-23T00:08:03;7.10;;;2.13;;
48987;SDS011;34799;51.440;-2.534;2022-07-23T00:10:31;8.32;;;2.78;;
48987;SDS011;34799;51.440;-2.534;2022-07-23T00:12:59;9.88;;;2.70;;
48987;SDS011;34799;51.440;-2.534;2022-07-23T00:15:26;5.93;;;2.08;;
48987;SDS011;34799;51.440;-2.534;2022-07-23T00:17:54;7.53;;;1.88;;
48987;SDS011;34799;51.440;-2.534;2022-07-23T00:20:21;8.07;;;2.30;;
48987;SDS011;34799;51.440;-2.534;2022-07-23T00:22:49;7.10;;;3.03;;
48987;SDS011;34799;51.440;-2.534;2022-07-23T00:25:18;11.38;;;3.50;;
48987;SDS011;34799;51.440;-2.534;2022-07-23T00:27:55;5.78;;;2.35;;
48987;SDS011;34799;51.440;-2.534;2022-07-23T00:30:23;7.93;;;2.85;;
48987;SDS011;34799;51.440;-2.534;2022-07-23T00:32:51;8.55;;;2.88;;
48987;SDS011;34799;51.440;-2.534;2022-07-23T00:35:22;8.77;;;2.92;;
48987;SDS011;34799;51.440;-2.534;2022-07-23T00:37:56;8.40;;;2.72;;
48987;SDS011;34799;51.440;-2.534;2022-07-23T00:40:25;7.82;;;2.95;;
48987;SDS011;34799;51.440;-2.534;2022-07-23T00:42:53;10.63;;;2.83;;
48987;SDS011;34799;51.440;-2.534;2022-07-23T00:45:20;9.55;;;3.92;;
48987;SDS011;34799;51.440;-2.534;2022-07-23T00:47:48;10.75;;;3.22;;
48987;SDS011;34799;51.440;-2.534;2022-07-23T00:50:15;6.85;;;3.08;;
48987;SDS011;34799;51.440;-2.534;2022-07-23T00:52:43;12.60;;;3.42;;
48987;SDS011;34799;51.440;-2.534;2022-07-23T00:55:10;11.45;;;3.08;;
48987;SDS011;34799;51.440;-2.534;2022-07-23T00:57:39;10.00;;;2.95;;
48987;SDS011;34799;51.440;-2.534;2022-07-23T01:00:11;4.57;;;2.83;;
48987;SDS011;34799;51.440;-2.534;2022-07-23T01:02:41;5.78;;;2.80;;
48987;SDS011;34799;51.440;-2.534;2022-07-23T01:05:09;6.72;;;2.72;;
48987;SDS011;34799;51.440;-2.534;2022-07-23T01:07:36;6.82;;;2.30;;
48987;SDS011;34799;51.440;-2.534;2022-07-23T01:10:05;10.13;;;2.47;;
48987;SDS011;34799;51.440;-2.534;2022-07-23T01:12:53;6.57;;;2.42;;
48987;SDS011;34799;51.440;-2.534;2022-07-23T01:15:21;5.85;;;2.33;;
48987;SDS011;34799;51.440;-2.534;2022-07-23T01:17:48;7.30;;;2.60;;
48987;SDS011;34799;51.440;-2.534;2022-07-23T01:20:17;6.75;;;2.58;;
48987;SDS011;34799;51.440;-2.534;2022-07-23T01:22:44;6.68;;;2.50;;
48987;SDS011;34799;51.440;-2.534;2022-07-23T01:25:12;7.22;;;2.80;;
48987;SDS011;34799;51.440;-2.534;2022-07-23T01:27:44;7.38;;;2.58;;
48987;SDS011;34799;51.440;-2.534;2022-07-23T01:30:11;6.18;;;2.50;;
48987;SDS011;34799;51.440;-2.534;2022-07-23T01:32:39;9.02;;;2.15;;
48987;SDS011;34799;51.440;-2.534;2022-07-23T01:35:09;3.92;;;2.45;;
48987;SDS011;34799;51.440;-2.534;2022-07-23T01:37:37;11.80;;;2.70;;
48987;SDS011;34799;51.440;-2.534;2022-07-23T01:40:05;5.82;;;1.88;;
48987;SDS011;34799;51.440;-2.534;2022-07-23T01:42:33;5.85;;;1.90;;
48987;SDS011;34799;51.440;-2.534;2022-07-23T01:45:02;6.55;;;1.80;;
48987;SDS011;34799;51.440;-2.534;2022-07-23T01:47:32;6.20;;;2.10;;
48987;SDS011;34799;51.440;-2.534;2022-07-23T01:50:01;6.00;;;2.30;;
48987;SDS011;34799;51.440;-2.534;2022-07-23T01:52:42;4.38;;;1.90;;
48987;SDS011;34799;51.440;-2.534;2022-07-23T01:55:10;5.78;;;1.98;;
48987;SDS011;34799;51.440;-2.534;2022-07-23T01:57:41;7.13;;;2.10;;
48987;SDS011;34799;51.440;-2.534;2022-07-23T02:00:11;8.13;;;2.67;;
48987;SDS011;34799;51.440;-2.534;2022-07-23T02:02:38;6.35;;;2.20;;
48987;SDS011;34799;51.440;-2.534;2022-07-23T02:05:06;8.73;;;2.70;;
48987;SDS011;34799;51.440;-2.534;2022-07-23T02:07:33;5.43;;;2.20;;
48987;SDS011;34799;51.440;-2.534;2022-07-23T02:10:00;9.45;;;2.83;;
48987;SDS011;34799;51.440;-2.534;2022-07-23T02:12:29;7.60;;;2.88;;
48987;SDS011;34799;51.440;-2.534;2022-07-23T02:14:56;6.70;;;2.20;;
48987;SDS011;34799;51.440;-2.534;2022-07-23T02:17:24;11.00;;;2.97;;
48987;SDS011;34799;51.440;-2.534;2022-07-23T02:19:51;9.55;;;2.58;;
48987;SDS011;34799;51.440;-2.534;2022-07-23T02:22:21;6.55;;;2.25;;
48987;SDS011;34799;51.440;-2.534;2022-07-23T02:24:48;6.30;;;2.47;;
48987;SDS011;34799;51.440;-2.534;2022-07-23T02:27:15;5.47;;;2.78;;
48987;SDS011;34799;51.440;-2.534;2022-07-23T02:29:43;5.88;;;2.22;;
48987;SDS011;34799;51.440;-2.534;2022-07-23T02:32:13;9.63;;;2.30;;
48987;SDS011;34799;51.440;-2.534;2022-07-23T02:34:40;7.22;;;3.03;;
48987;SDS011;34799;51.440;-2.534;2022-07-23T02:37:07;7.40;;;2.67;;
48987;SDS011;34799;51.440;-2.534;2022-07-23T02:39:36;6.55;;;2.63;;
48987;SDS011;34799;51.440;-2.534;2022-07-23T02:42:04;7.90;;;3.10;;
48987;SDS011;34799;51.440;-2.534;2022-07-23T02:44:33;9.88;;;2.90;;
48987;SDS011;34799;51.440;-2.534;2022-07-23T02:47:00;6.43;;;2.35;;
48987;SDS011;34799;51.440;-2.534;2022-07-23T02:49:29;10.75;;;3.25;;
48987;SDS011;34799;51.440;-2.534;2022-07-23T02:51:59;6.72;;;2.92;;
48987;SDS011;34799;51.440;-2.534;2022-07-23T02:54:26;7.47;;;2.72;;
48987;SDS011;34799;51.440;-2.534;2022-07-23T02:56:53;10.80;;;3.42;;
48987;SDS011;34799;51.440;-2.534;2022-07-23T02:59:21;7.90;;;3.17;;
48987;SDS011;34799;51.440;-2.534;2022-07-23T03:01:48;8.30;;;3.10;;
48987;SDS011;34799;51.440;-2.534;2022-07-23T03:04:16;6.78;;;3.40;;
48987;SDS011;34799;51.440;-2.534;2022-07-23T03:06:43;8.35;;;2.80;;
48987;SDS011;34799;51.440;-2.534;2022-07-23T03:09:10;7.00;;;2.60;;
48987;SDS011;34799;51.440;-2.534;2022-07-23T03:11:38;7.22;;;2.65;;
48987;SDS011;34799;51.440;-2.534;2022-07-23T03:14:06;4.57;;;2.20;;
48987;SDS011;34799;51.440;-2.534;2022-07-23T03:16:35;7.50;;;2.97;;
48987;SDS011;34799;51.440;-2.534;2022-07-23T03:19:02;4.38;;;2.30;;
48987;SDS011;34799;51.440;-2.534;2022-07-23T03:21:30;6.32;;;2.30;;
48987;SDS011;34799;51.440;-2.534;2022-07-23T03:23:58;6.32;;;2.50;;
48987;SDS011;34799;51.440;-2.534;2022-07-23T03:26:24;7.55;;;2.58;;
48987;SDS011;34799;51.440;-2.534;2022-07-23T03:28:52;4.07;;;2.30;;
48987;SDS011;34799;51.440;-2.534;2022-07-23T03:31:19;6.63;;;2.58;;
48987;SDS011;34799;51.440;-2.534;2022-07-23T03:33:47;5.00;;;2.40;;
48987;SDS011;34799;51.440;-2.534;2022-07-23T03:36:15;7.35;;;2.80;;
48987;SDS011;34799;51.440;-2.534;2022-07-23T03:38:44;6.10;;;2.60;;
48987;SDS011;34799;51.440;-2.534;2022-07-23T03:41:11;5.47;;;2.30;;
48987;SDS011;34799;51.440;-2.534;2022-07-23T03:43:39;7.57;;;2.53;;
48987;SDS011;34799;51.440;-2.534;2022-07-23T03:46:06;3.60;;;1.90;;
48987;SDS011;34799;51.440;-2.534;2022-07-23T03:48:33;7.43;;;2.47;;
48987;SDS011;34799;51.440;-2.534;2022-07-23T03:51:00;7.95;;;2.53;;
48987;SDS011;34799;51.440;-2.534;2022-07-23T03:53:27;5.60;;;2.63;;
48987;SDS011;34799;51.440;-2.534;2022-07-23T03:55:55;6.28;;;2.20;;
48987;SDS011;34799;51.440;-2.534;2022-07-23T03:58:23;5.00;;;2.25;;
48987;SDS011;34799;51.440;-2.534;2022-07-23T04:00:51;4.32;;;2.13;;
48987;SDS011;34799;51.440;-2.534;2022-07-23T04:03:18;5.30;;;2.00;;
48987;SDS011;34799;51.440;-2.534;2022-07-23T04:05:45;7.88;;;2.70;;
48987;SDS011;34799;51.440;-2.534;2022-07-23T04:08:13;7.47;;;2.58;;
48987;SDS011;34799;51.440;-2.534;2022-07-23T04:10:44;3.95;;;2.17;;
48987;SDS011;34799;51.440;-2.534;2022-07-23T04:13:14;5.18;;;2.35;;
48987;SDS011;34799;51.440;-2.534;2022-07-23T04:15:41;4.65;;;2.00;;
48987;SDS011;34799;51.440;-2.534;2022-07-23T04:18:09;9.38;;;2.80;;
48987;SDS011;34799;51.440;-2.534;2022-07-23T04:20:51;5.28;;;2.60;;
48987;SDS011;34799;51.440;-2.534;2022-07-23T04:23:18;5.65;;;2.22;;
48987;SDS011;34799;51.440;-2.534;2022-07-23T04:25:46;6.90;;;2.42;;
48987;SDS011;34799;51.440;-2.534;2022-07-23T04:28:15;7.35;;;2.20;;
48987;SDS011;34799;51.440;-2.534;2022-07-23T04:30:42;5.65;;;2.15;;
48987;SDS011;34799;51.440;-2.534;2022-07-23T04:33:11;6.40;;;2.63;;
48987;SDS011;34799;51.440;-2.534;2022-07-23T04:35:39;8.00;;;2.90;;
48987;SDS011;34799;51.440;-2.534;2022-07-23T04:38:18;8.18;;;2.60;;
48987;SDS011;34799;51.440;-2.534;2022-07-23T04:40:47;9.45;;;2.80;;
48987;SDS011;34799;51.440;-2.534;2022-07-23T04:43:14;6.50;;;2.60;;
48987;SDS011;34799;51.440;-2.534;2022-07-23T04:45:48;7.40;;;2.70;;
48987;SDS011;34799;51.440;-2.534;2022-07-23T04:48:15;6.70;;;3.58;;
48987;SDS011;34799;51.440;-2.534;2022-07-23T04:50:43;7.85;;;2.83;;
48987;SDS011;34799;51.440;-2.534;2022-07-23T04:53:21;6.03;;;2.55;;
48987;SDS011;34799;51.440;-2.534;2022-07-23T04:55:52;7.93;;;2.63;;
48987;SDS011;34799;51.440;-2.534;2022-07-23T04:58:19;7.30;;;2.55;;
48987;SDS011;34799;51.440;-2.534;2022-07-23T05:00:46;8.73;;;2.70;;
48987;SDS011;34799;51.440;-2.534;2022-07-23T05:03:15;6.55;;;2.63;;
48987;SDS011;34799;51.440;-2.534;2022-07-23T05:05:45;7.93;;;3.10;;
48987;SDS011;34799;51.440;-2.534;2022-07-23T05:08:15;8.48;;;2.95;;
48987;SDS011;34799;51.440;-2.534;2022-07-23T05:10:45;6.72;;;2.65;;
48987;SDS011;34799;51.440;-2.534;2022-07-23T05:13:16;6.28;;;2.35;;
48987;SDS011;34799;51.440;-2.534;2022-07-23T05:15:45;7.22;;;2.65;;
48987;SDS011;34799;51.440;-2.534;2022-07-23T05:18:13;4.88;;;2.75;;
48987;SDS011;34799;51.440;-2.534;2022-07-23T05:20:40;7.00;;;2.20;;
48987;SDS011;34799;51.440;-2.534;2022-07-23T05:23:09;10.32;;;2.33;;
48987;SDS011;34799;51.440;-2.534;2022-07-23T05:25:39;6.95;;;2.13;;
48987;SDS011;34799;51.440;-2.534;2022-07-23T05:28:06;6.30;;;2.08;;
48987;SDS011;34799;51.440;-2.534;2022-07-23T05:30:33;5.47;;;2.28;;
48987;SDS011;34799;51.440;-2.534;2022-07-23T05:33:04;7.10;;;2.45;;
48987;SDS011;34799;51.440;-2.534;2022-07-23T05:35:31;5.82;;;2.72;;
48987;SDS011;34799;51.440;-2.534;2022-07-23T05:38:19;9.00;;;2.65;;
48987;SDS011;34799;51.440;-2.534;2022-07-23T05:40:47;9.73;;;2.72;;
48987;SDS011;34799;51.440;-2.534;2022-07-23T05:43:15;7.90;;;2.60;;
48987;SDS011;34799;51.440;-2.534;2022-07-23T05:45:42;4.38;;;2.25;;
48987;SDS011;34799;51.440;-2.534;2022-07-23T05:48:09;5.45;;;2.28;;
48987;SDS011;34799;51.440;-2.534;2022-07-23T05:50:46;6.88;;;2.33;;
48987;SDS011;34799;51.440;-2.534;2022-07-23T05:53:28;6.68;;;2.90;;
48987;SDS011;34799;51.440;-2.534;2022-07-23T05:56:21;7.25;;;3.17;;
48987;SDS011;34799;51.440;-2.534;2022-07-23T05:58:48;9.00;;;2.67;;
48987;SDS011;34799;51.440;-2.534;2022-07-23T06:01:17;4.55;;;2.42;;
48987;SDS011;34799;51.440;-2.534;2022-07-23T06:03:55;8.25;;;2.70;;
48987;SDS011;34799;51.440;-2.534;2022-07-23T06:06:28;3.90;;;2.35;;
48987;SDS011;34799;51.440;-2.534;2022-07-23T06:08:56;6.43;;;2.30;;
48987;SDS011;34799;51.440;-2.534;2022-07-23T06:11:23;6.90;;;2.50;;
48987;SDS011;34799;51.440;-2.534;2022-07-23T06:13:50;8.55;;;2.50;;
48987;SDS011;34799;51.440;-2.534;2022-07-23T06:16:19;6.25;;;2.15;;
48987;SDS011;34799;51.440;-2.534;2022-07-23T06:18:46;5.05;;;2.40;;
48987;SDS011;34799;51.440;-2.534;2022-07-23T06:21:14;4.10;;;1.88;;
48987;SDS011;34799;51.440;-2.534;2022-07-23T06:24:02;5.70;;;2.38;;
48987;SDS011;34799;51.440;-2.534;2022-07-23T06:26:30;4.47;;;2.42;;
48987;SDS011;34799;51.440;-2.534;2022-07-23T06:28:59;7.15;;;2.20;;
48987;SDS011;34799;51.440;-2.534;2022-07-23T06:31:27;4.85;;;2.10;;
48987;SDS011;34799;51.440;-2.534;2022-07-23T06:33:55;6.93;;;2.58;;
48987;SDS011;34799;51.440;-2.534;2022-07-23T06:36:22;7.80;;;2.88;;
48987;SDS011;34799;51.440;-2.534;2022-07-23T06:38:49;4.53;;;2.38;;
48987;SDS011;34799;51.440;-2.534;2022-07-23T06:41:16;6.95;;;2.88;;
48987;SDS011;34799;51.440;-2.534;2022-07-23T06:43:43;6.70;;;2.40;;
48987;SDS011;34799;51.440;-2.534;2022-07-23T06:46:14;8.90;;;2.45;;
48987;SDS011;34799;51.440;-2.534;2022-07-23T06:48:42;4.82;;;2.40;;
48987;SDS011;34799;51.440;-2.534;2022-07-23T06:51:09;5.07;;;2.38;;
48987;SDS011;34799;51.440;-2.534;2022-07-23T06:53:36;7.05;;;2.83;;
48987;SDS011;34799;51.440;-2.534;2022-07-23T06:56:04;5.30;;;2.30;;
48987;SDS011;34799;51.440;-2.534;2022-07-23T06:58:32;8.05;;;2.75;;
48987;SDS011;34799;51.440;-2.534;2022-07-23T07:00:59;3.85;;;2.13;;
48987;SDS011;34799;51.440;-2.534;2022-07-23T07:03:26;5.78;;;1.83;;
48987;SDS011;34799;51.440;-2.534;2022-07-23T07:05:53;3.85;;;1.80;;
48987;SDS011;34799;51.440;-2.534;2022-07-23T07:08:21;5.28;;;1.67;;
48987;SDS011;34799;51.440;-2.534;2022-07-23T07:10:48;3.92;;;2.42;;
48987;SDS011;34799;51.440;-2.534;2022-07-23T07:13:15;3.15;;;1.48;;
48987;SDS011;34799;51.440;-2.534;2022-07-23T07:15:42;3.58;;;1.00;;
48987;SDS011;34799;51.440;-2.534;2022-07-23T07:18:09;2.28;;;0.70;;
48987;SDS011;34799;51.440;-2.534;2022-07-23T07:20:37;1.65;;;0.68;;
48987;SDS011;34799;51.440;-2.534;2022-07-23T07:23:05;2.50;;;0.70;;
48987;SDS011;34799;51.440;-2.534;2022-07-23T07:25:32;2.90;;;0.85;;
48987;SDS011;34799;51.440;-2.534;2022-07-23T07:27:59;4.25;;;0.70;;
48987;SDS011;34799;51.440;-2.534;2022-07-23T07:30:26;3.78;;;0.68;;
48987;SDS011;34799;51.440;-2.534;2022-07-23T07:32:56;2.50;;;0.65;;
48987;SDS011;34799;51.440;-2.534;2022-07-23T07:35:24;4.07;;;0.70;;
48987;SDS011;34799;51.440;-2.534;2022-07-23T07:37:53;0.98;;;0.60;;
48987;SDS011;34799;51.440;-2.534;2022-07-23T07:40:21;2.30;;;0.65;;
48987;SDS011;34799;51.440;-2.534;2022-07-23T07:42:50;2.22;;;0.68;;
48987;SDS011;34799;51.440;-2.534;2022-07-23T07:45:22;1.50;;;0.60;;
48987;SDS011;34799;51.440;-2.534;2022-07-23T07:47:51;2.08;;;0.52;;
48987;SDS011;34799;51.440;-2.534;2022-07-23T07:50:19;3.65;;;0.77;;
48987;SDS011;34799;51.440;-2.534;2022-07-23T07:52:48;3.10;;;0.40;;
48987;SDS011;34799;51.440;-2.534;2022-07-23T07:55:15;2.22;;;0.82;;
48987;SDS011;34799;51.440;-2.534;2022-07-23T07:57:42;2.75;;;0.50;;
48987;SDS011;34799;51.440;-2.534;2022-07-23T08:00:09;3.25;;;0.47;;
48987;SDS011;34799;51.440;-2.534;2022-07-23T08:02:39;1.05;;;0.40;;
48987;SDS011;34799;51.440;-2.534;2022-07-23T08:05:06;2.95;;;0.80;;
48987;SDS011;34799;51.440;-2.534;2022-07-23T08:07:34;0.80;;;0.52;;
48987;SDS011;34799;51.440;-2.534;2022-07-23T08:10:00;0.93;;;0.40;;
48987;SDS011;34799;51.440;-2.534;2022-07-23T08:12:28;2.80;;;0.40;;
48987;SDS011;34799;51.440;-2.534;2022-07-23T08:15:05;1.05;;;0.30;;
48987;SDS011;34799;51.440;-2.534;2022-07-23T08:17:36;1.42;;;0.52;;
48987;SDS011;34799;51.440;-2.534;2022-07-23T08:20:04;0.88;;;0.52;;
48987;SDS011;34799;51.440;-2.534;2022-07-23T08:25:21;2.70;;;0.40;;
48987;SDS011;34799;51.440;-2.534;2022-07-23T08:27:50;0.93;;;0.30;;
48987;SDS011;34799;51.440;-2.534;2022-07-23T08:30:18;0.98;;;0.30;;
48987;SDS011;34799;51.440;-2.534;2022-07-23T08:32:56;0.70;;;0.20;;
48987;SDS011;34799;51.440;-2.534;2022-07-23T08:35:38;0.85;;;0.20;;
48987;SDS011;34799;51.440;-2.534;2022-07-23T08:38:09;0.82;;;0.40;;
48987;SDS011;34799;51.440;-2.534;2022-07-23T08:40:38;2.03;;;0.45;;
48987;SDS011;34799;51.440;-2.534;2022-07-23T08:43:10;1.10;;;0.52;;
48987;SDS011;34799;51.440;-2.534;2022-07-23T08:45:44;0.60;;;0.30;;
48987;SDS011;34799;51.440;-2.534;2022-07-23T08:48:17;1.40;;;0.25;;
48987;SDS011;34799;51.440;-2.534;2022-07-23T08:50:47;0.60;;;0.22;;
48987;SDS011;34799;51.440;-2.534;2022-07-23T08:53:16;1.55;;;0.40;;
48987;SDS011;34799;51.440;-2.534;2022-07-23T08:55:46;0.70;;;0.30;;
48987;SDS011;34799;51.440;-2.534;2022-07-23T08:58:15;1.70;;;0.20;;
48987;SDS011;34799;51.440;-2.534;2022-07-23T09:00:44;0.47;;;0.20;;
48987;SDS011;34799;51.440;-2.534;2022-07-23T09:03:19;0.77;;;0.28;;
48987;SDS011;34799;51.440;-2.534;2022-07-23T09:05:50;0.65;;;0.30;;
48987;SDS011;34799;51.440;-2.534;2022-07-23T09:08:24;0.50;;;0.50;;
48987;SDS011;34799;51.440;-2.534;2022-07-23T09:13:27;1.55;;;0.40;;
48987;SDS011;34799;51.440;-2.534;2022-07-23T09:21:28;3.25;;;0.43;;
48987;SDS011;34799;51.440;-2.534;2022-07-23T09:26:39;0.75;;;0.30;;
48987;SDS011;34799;51.440;-2.534;2022-07-23T09:31:50;1.08;;;0.30;;
48987;SDS011;34799;51.440;-2.534;2022-07-23T09:34:23;0.60;;;0.30;;
48987;SDS011;34799;51.440;-2.534;2022-07-23T09:36:53;1.08;;;0.50;;
48987;SDS011;34799;51.440;-2.534;2022-07-23T09:39:26;1.05;;;0.60;;
48987;SDS011;34799;51.440;-2.534;2022-07-23T09:44:42;3.08;;;0.60;;
48987;SDS011;34799;51.440;-2.534;2022-07-23T09:47:11;1.40;;;0.40;;
48987;SDS011;34799;51.440;-2.534;2022-07-23T09:49:38;1.67;;;0.50;;
48987;SDS011;34799;51.440;-2.534;2022-07-23T09:52:05;1.92;;;0.30;;
48987;SDS011;34799;51.440;-2.534;2022-07-23T09:54:37;2.55;;;0.70;;
48987;SDS011;34799;51.440;-2.534;2022-07-23T09:57:07;1.52;;;0.40;;
48987;SDS011;34799;51.440;-2.534;2022-07-23T09:59:42;1.00;;;0.70;;
48987;SDS011;34799;51.440;-2.534;2022-07-23T10:02:12;0.95;;;0.40;;
48987;SDS011;34799;51.440;-2.534;2022-07-23T10:05:01;1.08;;;0.30;;
48987;SDS011;34799;51.440;-2.534;2022-07-23T10:08:05;2.63;;;0.30;;
48987;SDS011;34799;51.440;-2.534;2022-07-23T10:10:57;1.45;;;0.47;;
48987;SDS011;34799;51.440;-2.534;2022-07-23T10:14:02;2.47;;;0.40;;
48987;SDS011;34799;51.440;-2.534;2022-07-23T10:16:51;1.60;;;0.45;;
48987;SDS011;34799;51.440;-2.534;2022-07-23T10:19:18;4.05;;;0.93;;
48987;SDS011;34799;51.440;-2.534;2022-07-23T10:21:48;0.68;;;0.40;;
48987;SDS011;34799;51.440;-2.534;2022-07-23T10:24:23;1.73;;;0.50;;
48987;SDS011;34799;51.440;-2.534;2022-07-23T10:30:17;2.08;;;0.50;;
48987;SDS011;34799;51.440;-2.534;2022-07-23T10:32:57;1.52;;;0.57;;
48987;SDS011;34799;51.440;-2.534;2022-07-23T10:35:31;1.00;;;0.47;;
48987;SDS011;34799;51.440;-2.534;2022-07-23T10:38:10;1.40;;;0.40;;
48987;SDS011;34799;51.440;-2.534;2022-07-23T10:40:59;0.95;;;0.40;;
48987;SDS011;34799;51.440;-2.534;2022-07-23T10:43:30;2.35;;;0.50;;
48987;SDS011;34799;51.440;-2.534;2022-07-23T10:49:20;1.10;;;0.50;;
48987;SDS011;34799;51.440;-2.534;2022-07-23T10:54:43;3.10;;;0.73;;
48987;SDS011;34799;51.440;-2.534;2022-07-23T10:57:19;1.63;;;0.60;;
48987;SDS011;34799;51.440;-2.534;2022-07-23T11:02:32;2.45;;;0.57;;
48987;SDS011;34799;51.440;-2.534;2022-07-23T11:05:04;2.15;;;0.50;;
48987;SDS011;34799;51.440;-2.534;2022-07-23T11:07:33;1.25;;;0.60;;
48987;SDS011;34799;51.440;-2.534;2022-07-23T11:10:02;2.58;;;0.50;;
48987;SDS011;34799;51.440;-2.534;2022-07-23T11:17:31;1.85;;;0.80;;
48987;SDS011;34799;51.440;-2.534;2022-07-23T11:22:38;4.47;;;0.57;;
48987;SDS011;34799;51.440;-2.534;2022-07-23T11:25:06;0.60;;;0.50;;
48987;SDS011;34799;51.440;-2.534;2022-07-23T11:27:37;1.17;;;0.70;;
48987;SDS011;34799;51.440;-2.534;2022-07-23T11:30:07;1.55;;;0.43;;
48987;SDS011;34799;51.440;-2.534;2022-07-23T11:32:37;3.17;;;1.02;;
48987;SDS011;34799;51.440;-2.534;2022-07-23T11:35:40;1.55;;;0.70;;
48987;SDS011;34799;51.440;-2.534;2022-07-23T11:40:35;1.85;;;0.68;;
48987;SDS011;34799;51.440;-2.534;2022-07-23T11:43:04;1.20;;;0.70;;
48987;SDS011;34799;51.440;-2.534;2022-07-23T11:45:40;1.27;;;0.50;;
48987;SDS011;34799;51.440;-2.534;2022-07-23T11:48:09;2.10;;;1.03;;
48987;SDS011;34799;51.440;-2.534;2022-07-23T11:50:42;2.03;;;0.70;;
48987;SDS011;34799;51.440;-2.534;2022-07-23T11:53:09;2.55;;;0.90;;
48987;SDS011;34799;51.440;-2.534;2022-07-23T11:55:36;3.13;;;1.00;;
48987;SDS011;34799;51.440;-2.534;2022-07-23T11:58:06;3.90;;;0.90;;
48987;SDS011;34799;51.440;-2.534;2022-07-23T12:00:33;1.50;;;0.95;;
48987;SDS011;34799;51.440;-2.534;2022-07-23T12:03:02;3.30;;;0.90;;
48987;SDS011;34799;51.440;-2.534;2022-07-23T12:05:33;2.55;;;1.13;;
48987;SDS011;34799;51.440;-2.534;2022-07-23T12:08:03;1.23;;;0.73;;
48987;SDS011;34799;51.440;-2.534;2022-07-23T12:10:34;2.97;;;0.90;;
48987;SDS011;34799;51.440;-2.534;2022-07-23T12:13:03;3.22;;;0.80;;
48987;SDS011;34799;51.440;-2.534;2022-07-23T12:18:05;2.33;;;0.73;;
48987;SDS011;34799;51.440;-2.534;2022-07-23T12:20:37;3.35;;;0.70;;
48987;SDS011;34799;51.440;-2.534;2022-07-23T12:23:13;2.97;;;0.85;;
48987;SDS011;34799;51.440;-2.534;2022-07-23T12:25:43;2.45;;;0.80;;
48987;SDS011;34799;51.440;-2.534;2022-07-23T12:28:19;2.15;;;0.90;;
48987;SDS011;34799;51.440;-2.534;2022-07-23T12:30:51;2.50;;;0.85;;
48987;SDS011;34799;51.440;-2.534;2022-07-23T12:33:27;1.70;;;1.00;;
48987;SDS011;34799;51.440;-2.534;2022-07-23T12:36:01;4.20;;;1.00;;
48987;SDS011;34799;51.440;-2.534;2022-07-23T12:38:37;2.35;;;0.88;;
48987;SDS011;34799;51.440;-2.534;2022-07-23T12:41:09;2.60;;;1.17;;
48987;SDS011;34799;51.440;-2.534;2022-07-23T12:43:38;1.60;;;0.90;;
48987;SDS011;34799;51.440;-2.534;2022-07-23T12:46:16;2.20;;;1.08;;
48987;SDS011;34799;51.440;-2.534;2022-07-23T12:51:16;2.45;;;1.00;;
48987;SDS011;34799;51.440;-2.534;2022-07-23T12:53:49;2.30;;;1.10;;
48987;SDS011;34799;51.440;-2.534;2022-07-23T13:01:33;2.40;;;0.90;;
48987;SDS011;34799;51.440;-2.534;2022-07-23T13:04:05;3.28;;;0.68;;
48987;SDS011;34799;51.440;-2.534;2022-07-23T13:06:46;2.47;;;1.20;;
48987;SDS011;34799;51.440;-2.534;2022-07-23T13:09:15;2.33;;;1.05;;
48987;SDS011;34799;51.440;-2.534;2022-07-23T13:11:44;2.85;;;0.90;;
48987;SDS011;34799;51.440;-2.534;2022-07-23T13:14:14;2.72;;;1.20;;
48987;SDS011;34799;51.440;-2.534;2022-07-23T13:16:42;4.60;;;1.70;;
48987;SDS011;34799;51.440;-2.534;2022-07-23T13:19:09;2.47;;;1.50;;
48987;SDS011;34799;51.440;-2.534;2022-07-23T13:21:39;2.60;;;1.10;;
48987;SDS011;34799;51.440;-2.534;2022-07-23T13:24:08;2.90;;;0.95;;
48987;SDS011;34799;51.440;-2.534;2022-07-23T13:26:36;3.28;;;1.05;;
48987;SDS011;34799;51.440;-2.534;2022-07-23T13:29:05;1.70;;;0.95;;
48987;SDS011;34799;51.440;-2.534;2022-07-23T13:31:32;3.03;;;1.05;;
48987;SDS011;34799;51.440;-2.534;2022-07-23T13:33:59;3.72;;;1.00;;
48987;SDS011;34799;51.440;-2.534;2022-07-23T13:36:26;3.00;;;0.77;;
48987;SDS011;34799;51.440;-2.534;2022-07-23T13:38:53;3.60;;;1.23;;
48987;SDS011;34799;51.440;-2.534;2022-07-23T13:41:22;2.33;;;0.65;;
48987;SDS011;34799;51.440;-2.534;2022-07-23T13:43:49;5.97;;;1.45;;
48987;SDS011;34799;51.440;-2.534;2022-07-23T13:46:16;1.85;;;0.80;;
48987;SDS011;34799;51.440;-2.534;2022-07-23T13:48:43;3.22;;;1.10;;
48987;SDS011;34799;51.440;-2.534;2022-07-23T13:51:10;3.53;;;0.90;;
48987;SDS011;34799;51.440;-2.534;2022-07-23T13:53:37;3.63;;;1.10;;
48987;SDS011;34799;51.440;-2.534;2022-07-23T13:56:05;2.08;;;0.98;;
48987;SDS011;34799;51.440;-2.534;2022-07-23T13:58:32;3.33;;;1.15;;
48987;SDS011;34799;51.440;-2.534;2022-07-23T14:00:59;2.42;;;0.90;;
48987;SDS011;34799;51.440;-2.534;2022-07-23T14:03:26;1.98;;;0.70;;
48987;SDS011;34799;51.440;-2.534;2022-07-23T14:05:53;1.45;;;0.80;;
48987;SDS011;34799;51.440;-2.534;2022-07-23T14:08:22;2.72;;;1.10;;
48987;SDS011;34799;51.440;-2.534;2022-07-23T14:10:49;3.30;;;1.00;;
48987;SDS011;34799;51.440;-2.534;2022-07-23T14:13:16;2.67;;;1.10;;
48987;SDS011;34799;51.440;-2.534;2022-07-23T14:15:43;2.35;;;0.88;;
48987;SDS011;34799;51.440;-2.534;2022-07-23T14:18:10;2.75;;;1.25;;
48987;SDS011;34799;51.440;-2.534;2022-07-23T14:20:37;3.85;;;1.10;;
48987;SDS011;34799;51.440;-2.534;2022-07-23T14:23:05;4.20;;;1.15;;
48987;SDS011;34799;51.440;-2.534;2022-07-23T14:25:32;2.20;;;1.60;;
48987;SDS011;34799;51.440;-2.534;2022-07-23T14:27:59;2.83;;;1.58;;
48987;SDS011;34799;51.440;-2.534;2022-07-23T14:30:27;4.60;;;1.50;;
48987;SDS011;34799;51.440;-2.534;2022-07-23T14:32:57;3.15;;;1.45;;
48987;SDS011;34799;51.440;-2.534;2022-07-23T14:35:24;5.43;;;1.50;;
48987;SDS011;34799;51.440;-2.534;2022-07-23T14:37:52;2.95;;;1.00;;
48987;SDS011;34799;51.440;-2.534;2022-07-23T14:40:19;3.78;;;1.20;;
48987;SDS011;34799;51.440;-2.534;2022-07-23T14:42:46;3.38;;;1.20;;
48987;SDS011;34799;51.440;-2.534;2022-07-23T14:45:13;2.47;;;1.10;;
48987;SDS011;34799;51.440;-2.534;2022-07-23T14:47:41;3.78;;;1.15;;
48987;SDS011;34799;51.440;-2.534;2022-07-23T14:50:08;3.53;;;1.58;;
48987;SDS011;34799;51.440;-2.534;2022-07-23T14:52:35;2.17;;;1.23;;
48987;SDS011;34799;51.440;-2.534;2022-07-23T14:55:03;6.25;;;1.65;;
48987;SDS011;34799;51.440;-2.534;2022-07-23T14:57:30;3.80;;;1.65;;
48987;SDS011;34799;51.440;-2.534;2022-07-23T14:59:58;3.17;;;1.30;;
48987;SDS011;34799;51.440;-2.534;2022-07-23T15:02:25;3.97;;;1.70;;
48987;SDS011;34799;51.440;-2.534;2022-07-23T15:04:52;10.43;;;2.60;;
48987;SDS011;34799;51.440;-2.534;2022-07-23T15:07:19;3.58;;;1.52;;
48987;SDS011;34799;51.440;-2.534;2022-07-23T15:09:46;6.63;;;2.63;;
48987;SDS011;34799;51.440;-2.534;2022-07-23T15:12:15;4.57;;;1.58;;
48987;SDS011;34799;51.440;-2.534;2022-07-23T15:14:42;3.92;;;1.73;;
48987;SDS011;34799;51.440;-2.534;2022-07-23T15:17:09;6.03;;;1.80;;
48987;SDS011;34799;51.440;-2.534;2022-07-23T15:19:37;4.25;;;1.38;;
48987;SDS011;34799;51.440;-2.534;2022-07-23T15:22:04;3.45;;;1.77;;
48987;SDS011;34799;51.440;-2.534;2022-07-23T15:24:32;4.32;;;1.58;;
48987;SDS011;34799;51.440;-2.534;2022-07-23T15:26:59;4.00;;;1.20;;
48987;SDS011;34799;51.440;-2.534;2022-07-23T15:29:26;6.57;;;1.58;;
48987;SDS011;34799;51.440;-2.534;2022-07-23T15:31:53;6.68;;;1.65;;
48987;SDS011;34799;51.440;-2.534;2022-07-23T15:34:24;6.78;;;1.98;;
48987;SDS011;34799;51.440;-2.534;2022-07-23T15:36:52;4.47;;;1.60;;
48987;SDS011;34799;51.440;-2.534;2022-07-23T15:39:19;7.38;;;1.70;;